Time;durP1;ratioP1;P1;durP2;ratioP2;P2;SDS_P1;SDS_P2;PMS_P1;PMS_P2;Temp;Humidity;BMP_temperature;BMP_pressure;BME280_temperature;BME280_humidity;BME280_pressure;Samples;Min_cycle;Max_cycle;Signal;HPM_P1;HPM_P2
2021/08/16 00:00:31;;;;;;;3.50;0.70;;;18.70;73.20;;;;;;4972108;28;20090;-82
2021/08/16 00:02:58;;;;;;;2.38;0.70;;;18.70;73.10;;;;;;4964402;28;20050;-82
2021/08/16 00:05:26;;;;;;;3.20;0.82;;;18.70;73.00;;;;;;4964842;28;20124;-82
2021/08/16 00:07:53;;;;;;;1.70;0.63;;;18.70;73.00;;;;;;4972481;28;20038;-81
2021/08/16 00:10:21;;;;;;;3.58;0.80;;;18.80;73.10;;;;;;4940846;28;20050;-82
2021/08/16 00:12:48;;;;;;;1.65;0.55;;;18.80;73.10;;;;;;4972737;28;20487;-82
2021/08/16 00:15:16;;;;;;;3.47;0.63;;;18.80;73.00;;;;;;4973895;28;20034;-82
2021/08/16 00:17:44;;;;;;;1.60;0.40;;;18.90;73.00;;;;;;4987380;28;20070;-82
2021/08/16 00:20:11;;;;;;;1.98;0.43;;;18.90;73.00;;;;;;4989023;28;20066;-82
2021/08/16 00:22:38;;;;;;;3.72;0.50;;;18.90;72.90;;;;;;4956084;28;20117;-82
2021/08/16 00:25:06;;;;;;;1.92;0.40;;;18.90;72.90;;;;;;4944210;28;20042;-82
2021/08/16 00:27:34;;;;;;;4.55;0.95;;;19.00;72.90;;;;;;4956462;28;20573;-81
2021/08/16 00:30:03;;;;;;;4.85;0.88;;;19.00;72.90;;;;;;4972098;28;20043;-82
2021/08/16 00:32:30;;;;;;;2.17;0.45;;;19.00;72.90;;;;;;4973077;28;20054;-82
2021/08/16 00:34:57;;;;;;;3.20;0.40;;;19.00;72.80;;;;;;4954578;28;20094;-82
2021/08/16 00:37:24;;;;;;;2.50;0.40;;;19.00;72.70;;;;;;4966423;28;20058;-82
2021/08/16 00:39:51;;;;;;;2.05;0.60;;;19.00;72.70;;;;;;4984839;28;20478;-82
2021/08/16 00:42:18;;;;;;;5.15;1.02;;;19.00;72.70;;;;;;4988701;28;20093;-82
2021/08/16 00:44:45;;;;;;;3.67;0.68;;;19.00;72.90;;;;;;4944699;28;20490;-82
2021/08/16 00:47:15;;;;;;;3.03;0.57;;;18.90;72.90;;;;;;4972439;28;20042;-82
2021/08/16 00:49:42;;;;;;;4.00;0.70;;;19.00;73.00;;;;;;4942223;28;20130;-82
2021/08/16 00:52:10;;;;;;;4.75;0.63;;;18.90;73.00;;;;;;4956509;28;20102;-82
2021/08/16 00:54:37;;;;;;;5.15;0.80;;;18.90;73.00;;;;;;4944425;28;20051;-82
2021/08/16 00:57:06;;;;;;;5.93;1.00;;;18.80;73.00;;;;;;4973882;28;20050;-82
2021/08/16 00:59:33;;;;;;;6.10;0.85;;;18.80;73.10;;;;;;4960683;28;20471;-82
2021/08/16 01:02:00;;;;;;;5.72;0.88;;;18.80;73.20;;;;;;4971073;28;20069;-82
2021/08/16 01:04:28;;;;;;;6.72;1.13;;;18.80;73.30;;;;;;4976643;28;20073;-82
2021/08/16 01:06:55;;;;;;;5.97;0.98;;;18.70;73.40;;;;;;4957064;28;20054;-82
2021/08/16 01:09:23;;;;;;;5.50;1.13;;;18.70;73.40;;;;;;4937166;28;20042;-81
2021/08/16 01:11:51;;;;;;;7.68;1.20;;;18.70;73.40;;;;;;4988811;28;20233;-82
2021/08/16 01:14:19;;;;;;;3.30;0.75;;;18.70;73.50;;;;;;4956227;28;20495;-82
2021/08/16 01:16:49;;;;;;;6.30;1.10;;;18.70;73.50;;;;;;4956318;28;20051;-81
2021/08/16 01:19:24;;;;;;;5.63;1.13;;;18.70;73.70;;;;;;4945927;28;20796;-82
2021/08/16 01:21:51;;;;;;;4.95;0.70;;;18.60;73.70;;;;;;4988966;28;20138;-82
2021/08/16 01:24:19;;;;;;;4.82;0.80;;;18.60;73.80;;;;;;4973109;28;20043;-82
2021/08/16 01:26:47;;;;;;;4.60;0.82;;;18.60;73.80;;;;;;4988829;28;20126;-82
2021/08/16 01:29:22;;;;;;;4.45;0.90;;;18.60;73.80;;;;;;4970909;28;20443;-82
2021/08/16 01:32:00;;;;;;;5.38;1.00;;;18.60;73.80;;;;;;4972653;28;20082;-82
2021/08/16 01:34:31;;;;;;;4.93;1.35;;;18.60;73.80;;;;;;4955929;28;20050;-82
2021/08/16 01:36:59;;;;;;;4.50;0.82;;;18.60;74.10;;;;;;4945046;29;20043;-82
2021/08/16 01:39:28;;;;;;;5.22;1.02;;;18.60;74.10;;;;;;4986152;28;20066;-82
2021/08/16 01:41:55;;;;;;;5.07;0.88;;;18.60;74.30;;;;;;4970479;28;20047;-82
2021/08/16 01:44:23;;;;;;;6.18;1.13;;;18.50;74.30;;;;;;4992994;28;20055;-82
2021/08/16 01:47:26;;;;;;;3.33;0.73;;;18.50;74.30;;;;;;4960762;28;20495;-83
2021/08/16 01:49:55;;;;;;;3.88;0.77;;;18.60;74.20;;;;;;4962869;28;20043;-82
2021/08/16 01:52:22;;;;;;;5.45;0.73;;;18.50;74.30;;;;;;4947246;28;20046;-82
2021/08/16 01:54:49;;;;;;;7.55;0.75;;;18.50;74.30;;;;;;4975478;28;20521;-82
2021/08/16 01:57:16;;;;;;;3.17;0.40;;;18.50;74.30;;;;;;4944189;28;20090;-82
2021/08/16 01:59:43;;;;;;;2.22;0.50;;;18.50;74.20;;;;;;4968278;28;20038;-82
2021/08/16 02:02:10;;;;;;;7.47;1.02;;;18.60;74.20;;;;;;4933522;28;20141;-82
2021/08/16 02:04:37;;;;;;;3.95;0.70;;;18.60;74.30;;;;;;4960122;28;20065;-82
2021/08/16 02:07:04;;;;;;;1.70;0.30;;;18.60;74.40;;;;;;4975149;28;20191;-82
2021/08/16 02:09:32;;;;;;;2.80;0.55;;;18.50;75.00;;;;;;4992134;28;20106;-81
2021/08/16 02:11:59;;;;;;;5.28;0.70;;;18.50;74.40;;;;;;4975571;28;20046;-82
2021/08/16 02:14:25;;;;;;;3.35;0.50;;;18.50;74.40;;;;;;4966671;28;20038;-81
2021/08/16 02:16:52;;;;;;;4.95;0.60;;;18.50;74.40;;;;;;4991895;28;20130;-82
2021/08/16 02:19:19;;;;;;;3.38;0.60;;;18.50;74.50;;;;;;4966706;28;20051;-82
2021/08/16 02:21:46;;;;;;;5.40;0.80;;;18.50;74.40;;;;;;4959240;28;20053;-82
2021/08/16 02:24:13;;;;;;;5.03;0.82;;;18.50;74.40;;;;;;4959315;28;20062;-82
2021/08/16 02:26:40;;;;;;;3.28;0.63;;;18.50;74.60;;;;;;4965378;28;20078;-82
2021/08/16 02:29:09;;;;;;;3.40;0.75;;;18.50;74.60;;;;;;4991754;28;20050;-82
2021/08/16 02:31:36;;;;;;;3.90;0.60;;;18.50;74.70;;;;;;4975614;28;20121;-82
2021/08/16 02:34:03;;;;;;;2.67;0.60;;;18.40;74.90;;;;;;4959512;28;20105;-81
2021/08/16 02:36:31;;;;;;;3.53;0.68;;;18.40;74.90;;;;;;4975674;28;20434;-82
2021/08/16 02:38:58;;;;;;;4.05;1.10;;;18.40;75.00;;;;;;4974762;28;20450;-82
2021/08/16 02:41:25;;;;;;;3.05;0.90;;;18.40;75.10;;;;;;4959046;28;20069;-82
2021/08/16 02:43:52;;;;;;;5.90;0.90;;;18.40;75.20;;;;;;4974675;28;20042;-81
2021/08/16 02:47:29;;;;;;;4.53;1.15;;;18.30;75.10;;;;;;4976285;28;20129;-82
2021/08/16 02:50:02;;;;;;;3.47;0.77;;;18.30;75.20;;;;;;4981668;28;20571;-82
2021/08/16 02:52:29;;;;;;;6.03;1.20;;;18.30;75.40;;;;;;4990976;28;20039;-82
2021/08/16 02:54:58;;;;;;;3.95;0.88;;;18.30;75.60;;;;;;4950434;28;20134;-82
2021/08/16 02:57:25;;;;;;;4.80;1.20;;;18.20;76.00;;;;;;4973693;28;20565;-81
2021/08/16 02:59:52;;;;;;;7.47;1.20;;;18.20;75.90;;;;;;4977660;28;20054;-81
2021/08/16 03:02:19;;;;;;;5.40;0.85;;;18.20;76.10;;;;;;4974718;28;20086;-81
2021/08/16 03:04:47;;;;;;;5.35;1.30;;;18.20;76.10;;;;;;4940768;28;20444;-82
2021/08/16 03:07:14;;;;;;;5.93;1.13;;;18.10;76.30;;;;;;4955894;28;20063;-82
2021/08/16 03:09:41;;;;;;;5.13;1.15;;;18.10;76.60;;;;;;4963470;28;20047;-81
2021/08/16 03:12:09;;;;;;;3.53;1.00;;;18.10;76.60;;;;;;4960160;28;20409;-81
2021/08/16 03:14:36;;;;;;;6.05;0.98;;;18.10;76.40;;;;;;4923977;29;20050;-81
2021/08/16 03:17:04;;;;;;;1.63;0.45;;;18.10;76.50;;;;;;4939273;29;20047;-81
2021/08/16 03:19:31;;;;;;;6.63;0.80;;;18.20;76.50;;;;;;4901041;29;20043;-82
2021/08/16 03:21:58;;;;;;;7.18;1.20;;;18.10;76.50;;;;;;4949616;28;20086;-82
2021/08/16 03:24:25;;;;;;;5.32;0.88;;;18.20;76.80;;;;;;4923352;29;20039;-81
2021/08/16 03:26:52;;;;;;;5.03;1.17;;;18.20;76.80;;;;;;4954615;28;20043;-81
2021/08/16 03:29:19;;;;;;;7.00;1.27;;;18.10;77.00;;;;;;4923595;29;20098;-82
2021/08/16 03:31:46;;;;;;;4.72;0.90;;;18.10;77.00;;;;;;4939124;29;20063;-81
2021/08/16 03:34:13;;;;;;;9.10;1.20;;;18.10;77.00;;;;;;4920718;28;20088;-81
2021/08/16 03:36:40;;;;;;;5.30;0.93;;;18.20;77.10;;;;;;4907634;29;20110;-81
2021/08/16 03:39:07;;;;;;;5.05;0.85;;;18.10;77.00;;;;;;4954817;29;20039;-82
2021/08/16 03:41:34;;;;;;;4.88;0.88;;;18.20;77.00;;;;;;4938698;29;20047;-82
2021/08/16 03:44:02;;;;;;;5.32;0.82;;;18.20;77.10;;;;;;4954660;29;20142;-82
2021/08/16 03:46:29;;;;;;;3.83;0.80;;;18.20;77.10;;;;;;4941514;28;20070;-82
2021/08/16 03:49:16;;;;;;;4.63;0.47;;;18.20;77.10;;;;;;4942490;28;20054;-82
2021/08/16 03:51:43;;;;;;;4.97;1.10;;;18.20;77.00;;;;;;4961419;28;20488;-82
2021/08/16 03:54:10;;;;;;;7.13;0.90;;;18.20;77.10;;;;;;4954137;28;20043;-82
2021/08/16 03:56:37;;;;;;;5.38;0.95;;;18.20;77.40;;;;;;4932193;29;20433;-82
2021/08/16 03:59:04;;;;;;;3.95;1.05;;;18.20;77.40;;;;;;4953767;28;20079;-82
2021/08/16 04:01:31;;;;;;;4.90;0.90;;;18.30;77.40;;;;;;4937987;28;20047;-82
2021/08/16 04:04:01;;;;;;;8.18;0.95;;;18.30;77.30;;;;;;4932160;29;20035;-82
2021/08/16 04:06:29;;;;;;;4.25;0.93;;;18.30;77.40;;;;;;4970422;28;20101;-82
2021/08/16 04:08:56;;;;;;;2.72;0.47;;;18.30;77.40;;;;;;4938304;29;20043;-82
2021/08/16 04:11:23;;;;;;;6.13;1.08;;;18.30;78.00;;;;;;4907029;28;20099;-81
2021/08/16 04:13:50;;;;;;;8.90;1.35;;;18.30;77.40;;;;;;4922426;29;20050;-82
2021/08/16 04:16:17;;;;;;;5.05;0.80;;;18.30;77.40;;;;;;4953960;28;20526;-80
2021/08/16 04:18:44;;;;;;;6.75;1.05;;;18.30;77.50;;;;;;4954029;29;20510;-79
2021/08/16 04:21:11;;;;;;;4.75;1.08;;;18.30;77.60;;;;;;4929282;29;20058;-79
2021/08/16 04:23:38;;;;;;;3.63;0.93;;;18.30;77.60;;;;;;4922331;29;20046;-79
2021/08/16 04:26:05;;;;;;;5.78;0.70;;;18.30;77.70;;;;;;4938478;29;20460;-79
2021/08/16 04:28:32;;;;;;;5.00;1.10;;;18.30;77.70;;;;;;4953835;29;20555;-80
2021/08/16 04:30:59;;;;;;;4.50;0.90;;;18.30;77.90;;;;;;4937701;29;20543;-79
2021/08/16 04:33:26;;;;;;;2.28;0.55;;;18.30;77.80;;;;;;4937898;29;20047;-79
2021/08/16 04:35:53;;;;;;;5.18;0.90;;;18.30;77.70;;;;;;4937564;29;20054;-79
2021/08/16 04:38:22;;;;;;;6.03;0.85;;;18.30;77.80;;;;;;4969745;28;20051;-80
2021/08/16 04:40:51;;;;;;;6.07;1.17;;;18.30;77.80;;;;;;4953717;28;20046;-80
2021/08/16 04:43:20;;;;;;;4.43;0.93;;;18.30;78.00;;;;;;4934384;29;20564;-79
2021/08/16 04:45:48;;;;;;;4.28;1.08;;;18.30;77.90;;;;;;4932307;28;20044;-79
2021/08/16 04:48:15;;;;;;;5.22;0.75;;;18.30;78.00;;;;;;4950720;28;20408;-79
2021/08/16 04:50:43;;;;;;;5.80;1.10;;;18.30;78.00;;;;;;4952316;29;20051;-80
2021/08/16 04:53:10;;;;;;;5.28;1.30;;;18.30;78.10;;;;;;4952381;28;20051;-79
2021/08/16 04:55:37;;;;;;;3.70;0.90;;;18.30;78.10;;;;;;4953060;28;20043;-80
2021/08/16 04:58:04;;;;;;;4.18;1.10;;;18.30;78.00;;;;;;4940598;29;20051;-79
2021/08/16 05:00:31;;;;;;;4.22;0.80;;;18.30;78.00;;;;;;4906353;29;20134;-80
2021/08/16 05:03:00;;;;;;;4.03;0.98;;;18.30;77.90;;;;;;4952623;28;20399;-80
2021/08/16 05:05:30;;;;;;;3.30;1.02;;;18.40;78.00;;;;;;4957482;28;20518;-79
2021/08/16 05:07:59;;;;;;;3.53;0.80;;;18.40;78.10;;;;;;4956517;28;20051;-80
2021/08/16 05:10:28;;;;;;;3.35;0.88;;;18.40;78.00;;;;;;4956569;28;20403;-79
2021/08/16 05:12:58;;;;;;;4.00;1.00;;;18.40;77.90;;;;;;4973816;28;20093;-79
2021/08/16 05:15:25;;;;;;;6.72;1.17;;;18.40;78.00;;;;;;4972378;28;20050;-80
2021/08/16 05:17:53;;;;;;;3.85;1.00;;;18.40;78.60;;;;;;4956840;28;20051;-80
2021/08/16 05:20:22;;;;;;;3.90;1.00;;;18.40;78.00;;;;;;4963062;28;20046;-80
2021/08/16 05:22:49;;;;;;;6.15;0.93;;;18.40;78.10;;;;;;4946989;28;20074;-80
2021/08/16 05:25:17;;;;;;;3.88;1.23;;;18.50;78.10;;;;;;4978777;28;20063;-79
2021/08/16 05:27:48;;;;;;;3.75;0.88;;;18.50;78.00;;;;;;4962948;28;20046;-80
2021/08/16 05:30:16;;;;;;;3.20;0.90;;;18.50;77.90;;;;;;4978105;28;20114;-79
2021/08/16 05:32:43;;;;;;;3.35;1.17;;;18.50;78.40;;;;;;4979399;28;20070;-78
2021/08/16 05:35:10;;;;;;;3.08;0.77;;;18.60;77.90;;;;;;4989194;28;20062;-79
2021/08/16 05:37:38;;;;;;;4.65;1.40;;;18.60;77.80;;;;;;4966610;28;20054;-83
2021/08/16 05:40:06;;;;;;;5.63;1.60;;;18.60;77.80;;;;;;4980607;28;20073;-79
2021/08/16 05:42:33;;;;;;;5.38;1.45;;;18.60;77.90;;;;;;4948164;28;20074;-80
2021/08/16 05:45:02;;;;;;;4.05;0.98;;;18.60;77.80;;;;;;4947024;28;20050;-80
2021/08/16 05:47:30;;;;;;;4.55;1.30;;;18.70;77.80;;;;;;4978829;28;20138;-80
2021/08/16 05:49:57;;;;;;;3.00;1.10;;;18.70;77.70;;;;;;4979988;28;20097;-78
2021/08/16 05:52:24;;;;;;;4.70;2.15;;;18.80;77.70;;;;;;4964665;28;20098;-79
2021/08/16 05:54:51;;;;;;;5.25;1.70;;;18.80;77.60;;;;;;4960555;28;20074;-78
2021/08/16 05:57:18;;;;;;;8.75;2.60;;;18.80;77.50;;;;;;4956292;28;20082;-86
2021/08/16 05:59:45;;;;;;;5.28;2.17;;;18.80;77.60;;;;;;4946929;28;20758;-86
2021/08/16 06:02:12;;;;;;;6.10;2.22;;;18.80;77.60;;;;;;4958986;28;20098;-86
2021/08/16 06:04:39;;;;;;;5.78;2.13;;;18.80;77.60;;;;;;4962439;28;20034;-79
2021/08/16 06:07:06;;;;;;;4.88;1.83;;;18.80;77.70;;;;;;4979886;28;20038;-79
2021/08/16 06:09:33;;;;;;;5.57;2.25;;;18.80;77.70;;;;;;4980141;28;20129;-78
2021/08/16 06:12:00;;;;;;;4.65;1.95;;;18.80;77.80;;;;;;4946763;28;20089;-86
2021/08/16 06:14:31;;;;;;;4.78;2.17;;;18.80;77.80;;;;;;4947553;28;20519;-80
2021/08/16 06:16:58;;;;;;;7.43;3.83;;;18.80;77.90;;;;;;4978579;28;20204;-81
2021/08/16 06:19:25;;;;;;;7.32;3.13;;;18.70;78.00;;;;;;4962524;28;20399;-81
2021/08/16 06:21:53;;;;;;;6.07;2.92;;;18.70;78.00;;;;;;4946279;28;20077;-81
2021/08/16 06:24:20;;;;;;;4.75;1.98;;;18.70;78.00;;;;;;4930720;28;20050;-83
2021/08/16 06:26:47;;;;;;;6.10;3.05;;;18.80;77.90;;;;;;4946196;28;20051;-82
2021/08/16 06:29:14;;;;;;;5.85;3.65;;;18.80;78.10;;;;;;4930983;28;20130;-84
2021/08/16 06:31:41;;;;;;;3.90;2.28;;;18.80;78.00;;;;;;4958008;28;20062;-78
2021/08/16 06:34:10;;;;;;;5.30;2.70;;;18.80;78.00;;;;;;4976352;28;20137;-78
2021/08/16 06:36:41;;;;;;;8.00;3.60;;;18.70;78.10;;;;;;4943418;28;20533;-84
2021/08/16 06:39:18;;;;;;;5.85;2.63;;;18.70;78.40;;;;;;4976196;28;20373;-83
2021/08/16 06:41:47;;;;;;;7.00;3.55;;;18.60;78.60;;;;;;4959609;28;20447;-83
2021/08/16 06:44:17;;;;;;;5.50;3.38;;;18.40;79.10;;;;;;4960373;28;20129;-83
2021/08/16 06:46:46;;;;;;;8.55;4.07;;;18.30;79.60;;;;;;4943820;28;20047;-82
2021/08/16 06:49:14;;;;;;;6.63;3.63;;;18.20;80.10;;;;;;4943367;28;20062;-82
2021/08/16 06:51:42;;;;;;;5.65;3.47;;;18.10;80.40;;;;;;4959447;28;20050;-81
2021/08/16 06:54:09;;;;;;;6.90;3.50;;;18.00;80.70;;;;;;4975065;28;20125;-82
2021/08/16 06:56:56;;;;;;;8.57;3.60;;;17.90;81.10;;;;;;4956704;28;20395;-83
2021/08/16 06:59:23;;;;;;;5.38;4.10;;;17.80;81.40;;;;;;4975308;28;20038;-82
2021/08/16 07:01:50;;;;;;;4.32;3.35;;;17.70;81.60;;;;;;4959123;28;20492;-82
2021/08/16 07:04:18;;;;;;;5.07;3.13;;;17.70;81.80;;;;;;4958719;28;20407;-81
2021/08/16 07:06:46;;;;;;;7.60;4.78;;;17.70;82.10;;;;;;4959379;28;20043;-81
2021/08/16 07:09:14;;;;;;;8.48;4.65;;;17.70;82.60;;;;;;4942433;28;20384;-81
2021/08/16 07:11:41;;;;;;;6.90;4.93;;;17.60;82.80;;;;;;4958794;28;20058;-82
2021/08/16 07:14:08;;;;;;;6.18;4.35;;;17.50;83.20;;;;;;4975222;28;20077;-81
2021/08/16 07:16:36;;;;;;;7.47;3.60;;;17.40;83.40;;;;;;4942784;28;20047;-81
2021/08/16 07:19:03;;;;;;;5.55;3.25;;;17.40;83.60;;;;;;4941201;28;20499;-80
2021/08/16 07:21:30;;;;;;;6.93;4.28;;;17.40;83.70;;;;;;4983568;28;20491;-79
2021/08/16 07:23:57;;;;;;;6.28;3.80;;;17.40;84.20;;;;;;4957891;28;20043;-80
2021/08/16 07:26:24;;;;;;;7.25;4.30;;;17.50;84.20;;;;;;4958900;28;20483;-79
2021/08/16 07:28:52;;;;;;;8.00;4.00;;;17.50;84.80;;;;;;4974273;28;20392;-83
2021/08/16 07:31:19;;;;;;;9.50;4.13;;;17.40;85.20;;;;;;4942806;28;20115;-84
2021/08/16 07:33:46;;;;;;;5.18;3.38;;;17.30;85.60;;;;;;4923667;28;20051;-84
2021/08/16 07:36:13;;;;;;;4.53;3.10;;;17.30;86.00;;;;;;4958438;28;20042;-82
2021/08/16 07:38:40;;;;;;;5.03;3.42;;;17.20;86.10;;;;;;4975347;28;20050;-84
2021/08/16 07:41:07;;;;;;;4.90;2.83;;;17.20;86.60;;;;;;4944742;28;20155;-79
2021/08/16 07:43:34;;;;;;;5.18;2.47;;;17.20;86.70;;;;;;4942623;28;20126;-77
2021/08/16 07:46:03;;;;;;;4.93;2.25;;;17.10;86.90;;;;;;4968225;28;20133;-80
2021/08/16 07:48:30;;;;;;;3.25;1.88;;;17.20;87.40;;;;;;4941707;28;20508;-79
2021/08/16 07:50:57;;;;;;;3.83;1.50;;;17.20;87.60;;;;;;4929342;28;20042;-78
2021/08/16 07:53:24;;;;;;;3.45;1.25;;;17.20;87.60;;;;;;4957530;28;20047;-81
2021/08/16 07:55:51;;;;;;;3.17;1.20;;;17.10;87.90;;;;;;4946486;28;20074;-80
2021/08/16 07:58:18;;;;;;;2.90;1.10;;;17.10;88.00;;;;;;4933513;29;20589;-81
2021/08/16 08:00:45;;;;;;;2.08;0.90;;;17.10;87.70;;;;;;4973328;28;20105;-80
2021/08/16 08:03:12;;;;;;;2.50;0.88;;;17.20;87.70;;;;;;4926705;28;20050;-80
2021/08/16 08:05:39;;;;;;;3.10;0.80;;;17.20;87.50;;;;;;4953008;28;20078;-78
2021/08/16 08:08:06;;;;;;;1.92;0.80;;;17.20;87.50;;;;;;4956960;28;20047;-84
2021/08/16 08:10:33;;;;;;;1.85;0.70;;;17.20;87.40;;;;;;4958308;28;20557;-80
2021/08/16 08:13:00;;;;;;;1.23;0.60;;;17.30;87.20;;;;;;4963375;28;20051;-81
2021/08/16 08:15:27;;;;;;;2.67;0.68;;;17.40;87.00;;;;;;4979822;28;20054;-77
2021/08/16 08:17:54;;;;;;;1.48;0.70;;;17.40;87.00;;;;;;4949316;28;20526;-80
2021/08/16 08:20:22;;;;;;;2.03;1.10;;;17.30;87.40;;;;;;4941117;28;20046;-82
2021/08/16 08:22:49;;;;;;;2.88;1.00;;;17.10;87.70;;;;;;4967116;28;20409;-80
2021/08/16 08:25:16;;;;;;;2.47;0.60;;;17.00;88.20;;;;;;4975163;28;20039;-78
2021/08/16 08:27:50;;;;;;;5.53;1.08;;;16.80;88.50;;;;;;4975132;28;20486;-79
2021/08/16 08:30:18;;;;;;;4.25;1.50;;;16.70;89.00;;;;;;4956610;28;20059;-80
2021/08/16 08:32:56;;;;;;;4.18;1.35;;;16.40;89.30;;;;;;4972861;28;20105;-82
2021/08/16 08:35:23;;;;;;;3.38;1.40;;;16.10;89.50;;;;;;4940792;28;20043;-81
2021/08/16 08:37:50;;;;;;;3.25;1.35;;;16.00;89.90;;;;;;4961061;28;20054;-82
2021/08/16 08:40:19;;;;;;;3.65;1.35;;;16.00;90.00;;;;;;4937937;28;20039;-79
2021/08/16 08:42:52;;;;;;;2.47;1.08;;;15.90;89.90;;;;;;4972369;28;20066;-82
2021/08/16 08:45:21;;;;;;;4.38;1.33;;;15.90;90.00;;;;;;4956499;28;20078;-82
2021/08/16 08:47:49;;;;;;;5.70;1.40;;;15.80;89.90;;;;;;4956786;28;20086;-80
2021/08/16 08:50:17;;;;;;;4.60;1.50;;;15.90;89.80;;;;;;4951239;28;20520;-80
2021/08/16 08:52:46;;;;;;;5.47;1.63;;;15.90;89.80;;;;;;4957156;28;20117;-81
2021/08/16 08:55:14;;;;;;;3.75;1.52;;;16.00;89.70;;;;;;4965844;28;20066;-81
2021/08/16 08:58:02;;;;;;;3.45;1.30;;;16.10;89.60;;;;;;4968115;28;20487;-81
2021/08/16 09:00:29;;;;;;;3.90;1.35;;;16.30;89.30;;;;;;4982012;28;20070;-80
2021/08/16 09:03:00;;;;;;;3.10;1.13;;;16.50;89.00;;;;;;4949179;28;20094;-80
2021/08/16 09:05:29;;;;;;;3.80;1.10;;;16.60;88.50;;;;;;4944511;28;20051;-80
2021/08/16 09:07:58;;;;;;;3.55;1.65;;;16.80;88.30;;;;;;4937924;28;20075;-80
2021/08/16 09:10:27;;;;;;;3.92;1.35;;;16.80;88.10;;;;;;4965316;28;20046;-80
2021/08/16 09:12:59;;;;;;;3.72;1.17;;;16.80;88.70;;;;;;4937393;29;20062;-77
2021/08/16 09:15:30;;;;;;;4.97;1.42;;;16.90;88.00;;;;;;4941732;28;20035;-77
2021/08/16 09:18:03;;;;;;;5.10;1.40;;;16.90;87.90;;;;;;4961724;28;20051;-77
2021/08/16 09:20:35;;;;;;;4.28;1.55;;;17.10;87.70;;;;;;4949555;28;20051;-76
2021/08/16 09:23:04;;;;;;;3.20;1.25;;;17.20;87.50;;;;;;4938835;28;20098;-77
2021/08/16 09:25:36;;;;;;;2.63;1.05;;;17.30;87.20;;;;;;4959142;28;20036;-77
2021/08/16 09:28:07;;;;;;;2.63;1.30;;;17.50;87.00;;;;;;4934778;29;20078;-76
2021/08/16 09:30:38;;;;;;;3.67;1.15;;;17.60;86.60;;;;;;4966391;28;20134;-77
2021/08/16 09:33:19;;;;;;;6.00;2.00;;;17.50;86.60;;;;;;4958323;28;20082;-76
2021/08/16 09:35:56;;;;;;;3.75;1.30;;;17.50;86.60;;;;;;4904462;29;20091;-76
2021/08/16 09:38:36;;;;;;;3.65;1.80;;;17.40;86.70;;;;;;4941382;28;20088;-75
2021/08/16 09:41:05;;;;;;;8.02;1.40;;;17.30;86.80;;;;;;4944189;28;20043;-77
2021/08/16 09:43:32;;;;;;;4.40;1.40;;;17.40;87.00;;;;;;4923286;28;20043;-77
2021/08/16 09:46:00;;;;;;;4.57;1.42;;;17.30;86.80;;;;;;4970727;28;20051;-77
2021/08/16 09:48:27;;;;;;;4.40;1.52;;;17.40;86.80;;;;;;4952407;28;20051;-76
2021/08/16 09:50:55;;;;;;;5.25;1.60;;;17.40;86.60;;;;;;4961347;28;20043;-76
2021/08/16 09:53:24;;;;;;;3.67;1.48;;;17.40;86.40;;;;;;4949948;29;20689;-76
2021/08/16 09:55:54;;;;;;;4.47;1.42;;;17.30;86.40;;;;;;4953264;28;20062;-76
2021/08/16 09:58:21;;;;;;;4.72;1.50;;;17.40;86.20;;;;;;4918454;29;20341;-76
2021/08/16 10:00:51;;;;;;;5.38;1.80;;;17.40;86.20;;;;;;4950068;28;20047;-76
2021/08/16 10:03:19;;;;;;;3.60;1.30;;;17.50;86.00;;;;;;4951292;28;20061;-76
2021/08/16 10:05:49;;;;;;;3.30;1.38;;;17.70;85.60;;;;;;4964480;28;20407;-74
2021/08/16 10:08:24;;;;;;;3.95;1.20;;;17.80;85.70;;;;;;4952744;28;20051;-76
2021/08/16 10:10:54;;;;;;;3.08;1.10;;;17.80;84.60;;;;;;4955634;28;20047;-77
2021/08/16 10:13:21;;;;;;;7.53;2.13;;;17.90;84.40;;;;;;4937373;28;20120;-77
2021/08/16 10:15:57;;;;;;;6.90;1.83;;;17.90;84.30;;;;;;4934598;29;20178;-78
2021/08/16 10:18:32;;;;;;;3.05;1.30;;;17.90;83.90;;;;;;4933236;29;20132;-78
2021/08/16 10:21:00;;;;;;;3.58;1.58;;;18.00;83.90;;;;;;4930023;29;20055;-78
2021/08/16 10:23:27;;;;;;;7.20;2.05;;;18.10;83.80;;;;;;4968746;28;20044;-77
2021/08/16 10:25:56;;;;;;;5.90;1.80;;;18.10;83.40;;;;;;4936949;29;20044;-79
2021/08/16 10:28:33;;;;;;;5.47;1.98;;;18.40;83.10;;;;;;4952331;28;20070;-77
2021/08/16 10:31:02;;;;;;;4.47;1.90;;;18.60;81.90;;;;;;4939085;29;20102;-77
2021/08/16 10:33:41;;;;;;;5.65;2.78;;;18.70;81.80;;;;;;4965617;28;20039;-76
2021/08/16 10:36:21;;;;;;;7.90;2.72;;;19.00;80.60;;;;;;4936401;29;20062;-77
2021/08/16 10:38:51;;;;;;;5.65;2.40;;;19.20;79.20;;;;;;4936272;29;20483;-77
2021/08/16 10:41:31;;;;;;;8.52;2.63;;;19.30;78.50;;;;;;4968306;28;20055;-77
2021/08/16 10:44:18;;;;;;;7.97;2.95;;;19.40;76.40;;;;;;4936085;29;20047;-77
2021/08/16 10:47:00;;;;;;;10.75;3.60;;;19.30;76.00;;;;;;4935026;28;20511;-79
2021/08/16 10:49:37;;;;;;;9.02;2.67;;;19.40;75.60;;;;;;4938687;28;20404;-78
2021/08/16 10:52:05;;;;;;;7.22;3.58;;;19.40;75.60;;;;;;4953380;28;20634;-80
2021/08/16 10:54:34;;;;;;;7.22;2.80;;;19.40;75.40;;;;;;4936864;28;20051;-77
2021/08/16 10:57:02;;;;;;;6.30;3.03;;;19.40;75.20;;;;;;4942068;29;20063;-79
2021/08/16 10:59:30;;;;;;;9.32;2.38;;;19.40;74.50;;;;;;4936739;29;20071;-79
2021/08/16 11:01:58;;;;;;;4.45;1.73;;;19.30;74.40;;;;;;4957654;28;20137;-78
2021/08/16 11:04:37;;;;;;;8.40;3.20;;;19.30;74.80;;;;;;4958560;28;20142;-78
2021/08/16 11:07:06;;;;;;;6.57;2.97;;;19.20;74.20;;;;;;4970781;28;20407;-78
2021/08/16 11:09:37;;;;;;;6.35;2.38;;;19.10;73.90;;;;;;4968094;28;20082;-77
2021/08/16 11:12:10;;;;;;;5.15;2.67;;;19.10;74.10;;;;;;4973173;28;20042;-80
2021/08/16 11:14:42;;;;;;;6.57;2.35;;;19.10;74.10;;;;;;4957256;28;20050;-78
2021/08/16 11:17:09;;;;;;;5.25;2.08;;;19.10;73.60;;;;;;4971224;28;20130;-78
2021/08/16 11:19:47;;;;;;;6.63;2.67;;;19.20;73.80;;;;;;4956835;28;20743;-78
2021/08/16 11:22:16;;;;;;;5.78;2.10;;;19.40;73.40;;;;;;4939520;28;20066;-78
2021/08/16 11:24:46;;;;;;;5.88;2.03;;;19.30;73.60;;;;;;4988514;28;20099;-81
2021/08/16 11:27:31;;;;;;;5.32;1.90;;;19.30;72.60;;;;;;4988300;28;20163;-79
2021/08/16 11:30:02;;;;;;;4.45;1.83;;;19.10;72.20;;;;;;4988011;28;20418;-79
2021/08/16 11:32:30;;;;;;;3.60;1.42;;;19.10;72.70;;;;;;4955520;28;20039;-79
2021/08/16 11:34:58;;;;;;;4.88;1.90;;;19.10;72.80;;;;;;4987965;28;20049;-79
2021/08/16 11:37:31;;;;;;;3.53;1.13;;;19.10;72.70;;;;;;4940688;28;20372;-78
2021/08/16 11:39:59;;;;;;;4.07;1.13;;;18.80;72.80;;;;;;4986864;28;20082;-79
2021/08/16 11:42:45;;;;;;;2.65;1.15;;;18.50;73.10;;;;;;4957475;28;20047;-77
2021/08/16 11:45:19;;;;;;;4.07;1.30;;;18.00;74.70;;;;;;4991541;28;20049;-79
2021/08/16 11:47:50;;;;;;;4.18;1.25;;;17.40;76.30;;;;;;4975022;28;20419;-80
2021/08/16 11:50:21;;;;;;;4.05;0.88;;;17.10;77.60;;;;;;4953788;28;20410;-79
2021/08/16 11:52:51;;;;;;;2.75;0.90;;;16.90;78.60;;;;;;4958084;28;20047;-78
2021/08/16 11:55:26;;;;;;;3.25;1.27;;;16.90;79.80;;;;;;4972355;28;20121;-78
2021/08/16 11:57:55;;;;;;;3.70;1.08;;;16.90;79.00;;;;;;4974497;28;20134;-78
2021/08/16 12:00:27;;;;;;;4.03;1.52;;;16.90;79.20;;;;;;4972671;28;20077;-79
2021/08/16 12:02:57;;;;;;;5.22;1.58;;;16.80;79.50;;;;;;4959275;28;20114;-79
2021/08/16 12:05:25;;;;;;;3.60;0.73;;;16.80;79.50;;;;;;4966933;28;20126;-79
2021/08/16 12:07:53;;;;;;;2.90;0.98;;;16.90;79.30;;;;;;4924740;29;20039;-78
2021/08/16 12:10:23;;;;;;;4.07;1.30;;;16.80;79.10;;;;;;4966733;28;20477;-78
2021/08/16 12:12:57;;;;;;;4.35;1.10;;;16.70;79.40;;;;;;4935955;28;20047;-79
2021/08/16 12:15:24;;;;;;;6.18;1.42;;;16.60;79.60;;;;;;4921557;29;20043;-79
2021/08/16 12:18:02;;;;;;;4.20;1.20;;;16.50;80.10;;;;;;4952309;28;20043;-77
2021/08/16 12:20:48;;;;;;;3.92;1.50;;;16.10;81.10;;;;;;4937165;29;20102;-78
2021/08/16 12:23:30;;;;;;;6.25;1.60;;;15.80;82.40;;;;;;4947844;28;20047;-79
2021/08/16 12:25:58;;;;;;;4.75;1.10;;;15.60;82.90;;;;;;4944763;28;20048;-80
2021/08/16 12:28:58;;;;;;;4.78;1.10;;;15.50;83.10;;;;;;4968726;28;20177;-79
2021/08/16 12:31:27;;;;;;;4.28;1.30;;;15.60;83.00;;;;;;4919197;29;20075;-78
2021/08/16 12:33:59;;;;;;;4.90;1.30;;;15.60;83.10;;;;;;4950475;28;20106;-79
2021/08/16 12:36:30;;;;;;;5.67;1.60;;;15.50;83.40;;;;;;4922015;29;20464;-78
2021/08/16 12:39:12;;;;;;;6.95;1.40;;;15.50;83.60;;;;;;4954317;29;20074;-78
2021/08/16 12:42:05;;;;;;;5.72;1.13;;;15.50;83.80;;;;;;4969100;28;20146;-78
2021/08/16 12:44:32;;;;;;;5.97;1.40;;;15.60;83.70;;;;;;4936685;29;20499;-78
2021/08/16 12:47:05;;;;;;;4.22;0.93;;;15.60;83.50;;;;;;4921777;29;20051;-79
2021/08/16 12:49:33;;;;;;;4.05;1.00;;;15.70;83.30;;;;;;4934126;28;20146;-77
2021/08/16 12:52:01;;;;;;;4.78;1.10;;;15.80;83.40;;;;;;4952353;28;20098;-77
2021/08/16 12:54:28;;;;;;;5.18;1.40;;;15.80;83.40;;;;;;4953123;28;20039;-76
2021/08/16 12:56:55;;;;;;;4.90;1.45;;;15.80;83.40;;;;;;4937084;29;20049;-77
2021/08/16 12:59:23;;;;;;;7.35;1.25;;;15.90;83.50;;;;;;4933899;29;20043;-75